createdAt,value
2023-04-06T00:01:49.153Z,100962.78
2023-04-06T00:04:38.452Z,100967.91
2023-04-06T00:07:29.273Z,100980.59
2023-04-06T00:10:20.376Z,100966.69
2023-04-06T00:13:09.895Z,100968.25
2023-04-06T00:15:59.562Z,100965.78
2023-04-06T00:18:49.045Z,100950.56
2023-04-06T00:21:38.287Z,100954.59
2023-04-06T00:24:27.623Z,100957.97
2023-04-06T00:27:18.176Z,100948.44
2023-04-06T00:30:09.623Z,100952.31
2023-04-06T00:32:58.804Z,100931.31
2023-04-06T00:35:48.389Z,100923.44
2023-04-06T00:38:37.644Z,100922.94
2023-04-06T00:41:27.258Z,100934.00
2023-04-06T00:44:18.099Z,100941.53
2023-04-06T00:47:07.406Z,100943.16
2023-04-06T00:49:57.020Z,100947.66
2023-04-06T00:52:46.369Z,100949.06
2023-04-06T00:55:36.972Z,100936.94
2023-04-06T00:58:27.153Z,100931.47
2023-04-06T01:01:26.934Z,100935.50
2023-04-06T01:04:20.642Z,100948.72
2023-04-06T01:07:09.863Z,100942.03
2023-04-06T01:10:08.218Z,100942.53
2023-04-06T01:12:58.697Z,100948.81
2023-04-06T01:16:08.154Z,100951.72
2023-04-06T01:19:19.154Z,100951.94
2023-04-06T01:22:18.537Z,100962.50
2023-04-06T01:25:17.039Z,100956.53
2023-04-06T01:28:23.156Z,100945.50
2023-04-06T01:31:28.684Z,100944.97
2023-04-06T01:34:18.241Z,100952.56
2023-04-06T01:37:08.930Z,100939.50
2023-04-06T01:40:00.343Z,100946.09
2023-04-06T01:43:02.975Z,100954.13
2023-04-06T01:46:12.565Z,100939.31
2023-04-06T01:49:04.512Z,100937.56
2023-04-06T01:51:58.956Z,100923.88
2023-04-06T01:54:48.418Z,100931.59
2023-04-06T01:57:44.012Z,100924.41
2023-04-06T02:00:41.034Z,100926.63
2023-04-06T02:03:30.414Z,100923.28
2023-04-06T02:06:27.836Z,100932.72
2023-04-06T02:09:17.380Z,100929.81
2023-04-06T02:12:07.269Z,100930.63
2023-04-06T02:14:59.101Z,100928.63
2023-04-06T02:17:48.323Z,100912.13
2023-04-06T02:20:37.465Z,100922.19
2023-04-06T02:23:27.229Z,100921.53
2023-04-06T02:26:16.846Z,100922.13
2023-04-06T02:29:07.192Z,100915.75
2023-04-06T02:31:58.068Z,100925.66
2023-04-06T02:34:47.448Z,100915.13
2023-04-06T02:37:38.535Z,100918.09
2023-04-06T02:40:27.754Z,100928.28
2023-04-06T02:43:18.426Z,100921.63
2023-04-06T02:46:08.374Z,100925.97
2023-04-06T02:49:02.807Z,100927.09
2023-04-06T02:51:54.719Z,100929.75
2023-04-06T02:54:52.271Z,100930.56
2023-04-06T02:57:48.036Z,100929.44
2023-04-06T03:00:38.220Z,100931.16
2023-04-06T03:03:27.824Z,100924.88
2023-04-06T03:06:19.532Z,100921.47
2023-04-06T03:09:10.974Z,100935.47
2023-04-06T03:12:04.426Z,100928.56
2023-04-06T03:15:01.686Z,100929.16
2023-04-06T03:17:52.805Z,100924.41
2023-04-06T03:21:04.881Z,100931.81
2023-04-06T03:24:07.444Z,100922.50
2023-04-06T03:26:57.587Z,100936.69
2023-04-06T03:29:47.376Z,100930.81
2023-04-06T03:32:41.480Z,100933.25
2023-04-06T03:35:30.868Z,100935.47
2023-04-06T03:38:20.285Z,100931.22
2023-04-06T03:41:11.715Z,100926.06
2023-04-06T03:44:02.868Z,100933.69
2023-04-06T03:46:52.256Z,100926.97
2023-04-06T03:49:42.357Z,100939.84
2023-04-06T03:52:34.346Z,100935.88
2023-04-06T03:55:27.109Z,100932.44
2023-04-06T03:58:17.857Z,100925.66
2023-04-06T04:01:08.540Z,100942.56
2023-04-06T04:03:58.177Z,100943.41
2023-04-06T04:06:47.440Z,100927.41
2023-04-06T04:09:37.685Z,100940.97
2023-04-06T04:12:27.470Z,100940.75
2023-04-06T04:15:18.311Z,100944.59
2023-04-06T04:18:07.735Z,100933.16
2023-04-06T04:20:57.101Z,100923.34
2023-04-06T04:23:47.014Z,100942.97
2023-04-06T04:26:36.490Z,100931.75
2023-04-06T04:29:26.177Z,100941.88
2023-04-06T04:32:18.766Z,100932.66
2023-04-06T04:35:10.680Z,100946.22
2023-04-06T04:38:03.012Z,100940.88
2023-04-06T04:40:53.034Z,100948.03
2023-04-06T04:43:42.296Z,100953.19
2023-04-06T04:46:32.920Z,100949.66
2023-04-06T04:49:24.478Z,100961.63
2023-04-06T04:52:14.828Z,100961.91
2023-04-06T04:55:16.267Z,100972.25
2023-04-06T04:58:10.118Z,100969.28
2023-04-06T05:01:10.938Z,100956.22
2023-04-06T05:04:01.266Z,100960.88
2023-04-06T05:06:52.110Z,100971.75
2023-04-06T05:09:42.322Z,100960.00
2023-04-06T05:12:32.709Z,100968.19
2023-04-06T05:15:28.172Z,100969.19
2023-04-06T05:18:23.445Z,100975.78
2023-04-06T05:21:14.192Z,100982.06
2023-04-06T05:24:16.411Z,100979.00
2023-04-06T05:27:07.944Z,100978.00
2023-04-06T05:29:57.955Z,100987.72
2023-04-06T05:32:50.136Z,100984.69
2023-04-06T05:35:39.973Z,100993.09
2023-04-06T05:38:34.494Z,100979.22
2023-04-06T05:41:33.223Z,100987.13
2023-04-06T05:44:23.491Z,100985.91
2023-04-06T05:47:22.917Z,100981.44
2023-04-06T05:50:20.686Z,100991.75
2023-04-06T05:53:09.984Z,100998.84
2023-04-06T05:56:06.471Z,100994.88
2023-04-06T05:58:57.477Z,100994.56
2023-04-06T06:01:50.974Z,100994.97
2023-04-06T06:04:42.122Z,101017.53
2023-04-06T06:07:31.636Z,100998.22
2023-04-06T06:10:24.315Z,101009.16
2023-04-06T06:13:14.359Z,101020.28
2023-04-06T06:16:06.501Z,101009.22
2023-04-06T06:18:59.150Z,100970.97
2023-04-06T06:21:48.552Z,101022.31
2023-04-06T06:24:38.483Z,101019.94
2023-04-06T06:27:27.971Z,101029.69
2023-04-06T06:30:18.422Z,101035.44
2023-04-06T06:33:09.687Z,101030.88
2023-04-06T06:35:58.979Z,101036.66
2023-04-06T06:38:48.213Z,101031.75
2023-04-06T06:41:41.334Z,101041.56
2023-04-06T06:44:31.432Z,101038.84
2023-04-06T06:47:20.922Z,101035.97
2023-04-06T06:50:12.358Z,101041.00
2023-04-06T06:53:01.577Z,101043.59
2023-04-06T06:55:51.102Z,101044.72
2023-04-06T06:58:40.573Z,101040.56
2023-04-06T07:01:29.743Z,101054.41
2023-04-06T07:04:19.158Z,101045.53
2023-04-06T07:07:10.602Z,101050.06
2023-04-06T07:10:00.519Z,101057.03
2023-04-06T07:12:50.111Z,101058.75
2023-04-06T07:15:39.325Z,101064.78
2023-04-06T07:18:28.710Z,101066.72
2023-04-06T07:21:18.743Z,101068.00
2023-04-06T07:24:10.483Z,101066.59
2023-04-06T07:27:01.724Z,101075.59
2023-04-06T07:29:51.539Z,101077.16
2023-04-06T07:32:40.887Z,101060.94
2023-04-06T07:35:31.718Z,101081.66
2023-04-06T07:38:21.158Z,101039.47
2023-04-06T07:41:11.814Z,101088.06
2023-04-06T07:44:01.170Z,101082.22
2023-04-06T07:46:51.152Z,101090.13
2023-04-06T07:49:43.265Z,101086.66
2023-04-06T07:52:34.655Z,101080.91
2023-04-06T07:55:25.266Z,101093.22
2023-04-06T07:58:15.910Z,101090.19
2023-04-06T08:01:05.222Z,101092.59
2023-04-06T08:03:56.734Z,101096.84
2023-04-06T08:06:46.091Z,101092.91
2023-04-06T08:09:35.671Z,101093.16
2023-04-06T08:12:24.953Z,101101.91
2023-04-06T08:15:16.033Z,101108.81
2023-04-06T08:18:05.621Z,101113.28
2023-04-06T08:20:55.053Z,101112.09
2023-04-06T08:23:44.434Z,101109.13
2023-04-06T08:26:33.953Z,101118.19
2023-04-06T08:29:23.124Z,101116.94
2023-04-06T08:32:13.722Z,101115.94
2023-04-06T08:35:02.976Z,101136.41
2023-04-06T08:37:52.212Z,101129.34
2023-04-06T08:40:42.085Z,101118.59
2023-04-06T08:43:32.797Z,101125.31
2023-04-06T08:46:23.057Z,101132.81
2023-04-06T08:49:14.548Z,101132.03
2023-04-06T08:52:03.987Z,101144.56
2023-04-06T08:54:53.207Z,101140.06
2023-04-06T08:57:42.913Z,101140.94
2023-04-06T09:00:32.522Z,101151.25
2023-04-06T09:03:23.635Z,101151.91
2023-04-06T09:06:15.409Z,101157.56
2023-04-06T09:09:05.095Z,101150.88
2023-04-06T09:11:54.978Z,101161.31
2023-04-06T09:14:44.299Z,101163.75
2023-04-06T09:17:35.072Z,101164.53
2023-04-06T09:20:27.429Z,101168.00
2023-04-06T09:23:22.211Z,101179.22
2023-04-06T09:26:13.849Z,101173.81
2023-04-06T09:29:04.623Z,101171.34
2023-04-06T09:31:54.038Z,101182.88
2023-04-06T09:34:43.324Z,101173.72
2023-04-06T09:37:32.556Z,101198.09
2023-04-06T09:40:23.394Z,101200.16
2023-04-06T09:43:12.820Z,101209.63
2023-04-06T09:46:05.169Z,101209.66
2023-04-06T09:48:55.043Z,101209.00
2023-04-06T09:51:48.442Z,101210.00
2023-04-06T09:54:38.530Z,101207.97
2023-04-06T09:57:34.351Z,101205.81
2023-04-06T10:00:25.735Z,101210.25
2023-04-06T10:03:33.822Z,101204.94
2023-04-06T10:06:29.260Z,101219.56
2023-04-06T10:09:18.687Z,101228.28
2023-04-06T10:12:08.985Z,101219.78
2023-04-06T10:14:59.836Z,101221.34
2023-04-06T10:17:49.239Z,101221.44
2023-04-06T10:20:45.845Z,101211.53
2023-04-06T10:23:38.477Z,101233.41
2023-04-06T10:26:27.682Z,101243.38
2023-04-06T10:29:16.928Z,101234.31
2023-04-06T10:32:07.712Z,101235.63
2023-04-06T10:35:09.081Z,101227.84
2023-04-06T10:38:05.861Z,101244.00
2023-04-06T10:40:55.291Z,101245.56
2023-04-06T10:43:45.398Z,101244.91
2023-04-06T10:46:36.508Z,101257.63
2023-04-06T10:49:27.965Z,101257.44
2023-04-06T10:52:17.230Z,101246.88
2023-04-06T10:55:07.682Z,101254.25
2023-04-06T10:57:56.826Z,101264.53
2023-04-06T11:00:50.858Z,101258.16
2023-04-06T11:03:46.626Z,101244.56
2023-04-06T11:06:37.282Z,101269.00
2023-04-06T11:09:28.245Z,101263.19
2023-04-06T11:12:26.030Z,101273.84
2023-04-06T11:15:15.128Z,101277.75
2023-04-06T11:18:06.995Z,101275.13
2023-04-06T11:20:56.343Z,101272.38
2023-04-06T11:23:47.030Z,101276.41
2023-04-06T11:26:41.375Z,101275.81
2023-04-06T11:29:32.672Z,101279.19
2023-04-06T11:32:25.619Z,101267.88
2023-04-06T11:35:26.336Z,101291.03
2023-04-06T11:38:15.584Z,101287.41
2023-04-06T11:41:13.623Z,101283.16
2023-04-06T11:44:04.118Z,101286.19
2023-04-06T11:46:56.538Z,101287.88
2023-04-06T11:49:46.984Z,101280.66
2023-04-06T11:52:36.554Z,101293.00
2023-04-06T11:55:26.112Z,101300.16
2023-04-06T11:58:17.103Z,101303.50
2023-04-06T12:01:06.812Z,101294.09
2023-04-06T12:03:56.364Z,101301.72
2023-04-06T12:06:45.892Z,101299.06
2023-04-06T12:09:37.071Z,101305.88
2023-04-06T12:12:26.650Z,101295.75
2023-04-06T12:15:17.456Z,101297.63
2023-04-06T12:18:06.822Z,101293.81
2023-04-06T12:20:56.123Z,101302.31
2023-04-06T12:23:45.294Z,101291.22
2023-04-06T12:26:35.088Z,101294.06
2023-04-06T12:29:24.442Z,101301.31
2023-04-06T12:32:15.097Z,101295.38
2023-04-06T12:35:04.464Z,101287.06
2023-04-06T12:37:53.665Z,101304.19
2023-04-06T12:40:42.788Z,101299.34
2023-04-06T12:43:31.895Z,101298.72
2023-04-06T12:46:21.924Z,101297.66
2023-04-06T12:49:12.615Z,101305.34
2023-04-06T12:52:01.926Z,101300.09
2023-04-06T12:54:51.497Z,101300.91
2023-04-06T12:57:41.325Z,101310.78
2023-04-06T13:00:31.789Z,101311.69
2023-04-06T13:03:21.884Z,101302.28
2023-04-06T13:06:14.259Z,101300.25
2023-04-06T13:09:04.265Z,101311.00
2023-04-06T13:11:53.393Z,101319.25
2023-04-06T13:14:42.680Z,101321.72
2023-04-06T13:17:32.220Z,101317.81
2023-04-06T13:20:21.664Z,101327.81
2023-04-06T13:23:12.496Z,101335.00
2023-04-06T13:26:04.224Z,101321.41
2023-04-06T13:28:53.594Z,101334.94
2023-04-06T13:31:42.965Z,101330.69
2023-04-06T13:34:32.704Z,101331.78
2023-04-06T13:37:21.861Z,101328.56
2023-04-06T13:40:14.061Z,101318.41
2023-04-06T13:43:03.238Z,101331.81
2023-04-06T13:45:53.607Z,101319.69
2023-04-06T13:48:43.135Z,101323.88
2023-04-06T13:51:33.131Z,101335.03
2023-04-06T13:54:22.917Z,101327.47
2023-04-06T13:57:13.619Z,101333.81
2023-04-06T14:00:05.079Z,101337.59
2023-04-06T14:02:57.005Z,101336.63
2023-04-06T14:05:46.949Z,101332.97
2023-04-06T14:08:36.116Z,101339.09
2023-04-06T14:11:25.287Z,101348.44
2023-04-06T14:14:16.106Z,101333.75
2023-04-06T14:17:05.434Z,101335.97
2023-04-06T14:19:54.639Z,101340.03
2023-04-06T14:22:44.536Z,101343.59
2023-04-06T14:25:35.883Z,101342.59
2023-04-06T14:28:25.301Z,101337.16
2023-04-06T14:31:17.336Z,101338.78
2023-04-06T14:34:06.801Z,101344.19
2023-04-06T14:36:56.313Z,101341.72
2023-04-06T14:39:45.596Z,101324.25
2023-04-06T14:42:35.664Z,101335.69
2023-04-06T14:45:24.937Z,101334.69
2023-04-06T14:48:16.938Z,101335.13
2023-04-06T14:51:06.231Z,101337.50
2023-04-06T14:53:55.473Z,101328.75
2023-04-06T14:56:44.923Z,101336.88
2023-04-06T14:59:35.954Z,101336.78
2023-04-06T15:02:28.441Z,101335.53
2023-04-06T15:05:19.453Z,101333.19
2023-04-06T15:08:10.328Z,101336.22
2023-04-06T15:11:01.960Z,101341.09
2023-04-06T15:13:51.729Z,101335.84
2023-04-06T15:16:40.945Z,101341.06
2023-04-06T15:19:30.215Z,101343.63
2023-04-06T15:22:20.890Z,101350.06
2023-04-06T15:25:10.753Z,101360.28
2023-04-06T15:28:01.267Z,101358.00
2023-04-06T15:30:51.435Z,101357.50
2023-04-06T15:33:41.831Z,101361.75
2023-04-06T15:36:32.512Z,101362.00
2023-04-06T15:39:23.167Z,101364.97
2023-04-06T15:42:12.364Z,101376.72
2023-04-06T15:45:01.980Z,101369.41
2023-04-06T15:47:51.226Z,101368.78
2023-04-06T15:50:40.552Z,101376.50
2023-04-06T15:53:29.987Z,101362.34
2023-04-06T15:56:21.085Z,101361.72
2023-04-06T15:59:10.457Z,101367.22
2023-04-06T16:02:00.883Z,101358.81
2023-04-06T16:04:50.399Z,101366.44
2023-04-06T16:07:39.757Z,101371.72
2023-04-06T16:10:29.095Z,101369.09
2023-04-06T16:13:20.154Z,101376.53
2023-04-06T16:16:10.699Z,101380.81
2023-04-06T16:18:59.910Z,101389.84
2023-04-06T16:21:49.424Z,101380.72
2023-04-06T16:24:39.929Z,101387.84
2023-04-06T16:27:29.098Z,101388.41
2023-04-06T16:30:19.942Z,101391.88
2023-04-06T16:33:09.377Z,101395.31
2023-04-06T16:35:58.611Z,101396.06
2023-04-06T16:38:47.768Z,101399.13
2023-04-06T16:41:37.124Z,101401.09
2023-04-06T16:44:27.318Z,101404.63
2023-04-06T16:47:18.343Z,101406.00
2023-04-06T16:50:08.986Z,101420.63
2023-04-06T16:52:58.249Z,101408.84
2023-04-06T16:55:47.429Z,101413.41
2023-04-06T16:58:37.882Z,101409.69
2023-04-06T17:01:29.567Z,101415.25
2023-04-06T17:04:20.864Z,101415.78
2023-04-06T17:07:10.918Z,101413.34
2023-04-06T17:10:02.389Z,101414.06
2023-04-06T17:12:51.710Z,101418.69
2023-04-06T17:15:41.033Z,101415.47
2023-04-06T17:18:31.110Z,101411.28
2023-04-06T17:21:21.949Z,101424.72
2023-04-06T17:24:12.131Z,101425.06
2023-04-06T17:27:02.872Z,101416.16
2023-04-06T17:29:52.212Z,101428.97
2023-04-06T17:32:42.676Z,101421.84
2023-04-06T17:35:31.978Z,101430.47
2023-04-06T17:38:23.303Z,101427.34
2023-04-06T17:41:14.756Z,101436.47
2023-04-06T17:44:04.138Z,101441.81
2023-04-06T17:46:53.452Z,101442.47
2023-04-06T17:49:42.966Z,101437.16
2023-04-06T17:52:33.750Z,101449.28
2023-04-06T17:55:24.682Z,101456.91
2023-04-06T17:58:13.993Z,101447.84
2023-04-06T18:01:08.655Z,101459.00
2023-04-06T18:03:57.933Z,101473.06
2023-04-06T18:06:47.536Z,101466.47
2023-04-06T18:09:37.130Z,101468.69
2023-04-06T18:12:27.780Z,101477.63
2023-04-06T18:15:17.900Z,101465.94
2023-04-06T18:18:08.058Z,101477.78
2023-04-06T18:20:57.360Z,101482.78
2023-04-06T18:23:46.613Z,101483.72
2023-04-06T18:26:36.780Z,101482.38
2023-04-06T18:29:27.519Z,101484.44
2023-04-06T18:32:17.336Z,101497.06
2023-04-06T18:35:09.372Z,101502.06
2023-04-06T18:37:58.587Z,101497.28
2023-04-06T18:40:47.851Z,101498.56
2023-04-06T18:43:37.058Z,101520.03
2023-04-06T18:46:27.679Z,101514.53
2023-04-06T18:49:17.097Z,101510.00
2023-04-06T18:52:07.496Z,101516.66
2023-04-06T18:54:56.971Z,101526.47
2023-04-06T18:57:46.231Z,101519.06
2023-04-06T19:00:35.626Z,101536.00
2023-04-06T19:03:28.587Z,101548.25
2023-04-06T19:06:17.656Z,101546.72
2023-04-06T19:09:07.790Z,101537.28
2023-04-06T19:11:57.636Z,101537.28
2023-04-06T19:14:51.721Z,101548.28
2023-04-06T19:17:40.986Z,101553.22
2023-04-06T19:20:34.508Z,101549.75
2023-04-06T19:23:24.344Z,101549.69
2023-04-06T19:26:17.023Z,101542.56
2023-04-06T19:29:06.687Z,101539.31
2023-04-06T19:31:56.150Z,101521.56
2023-04-06T19:34:45.779Z,101538.44
2023-04-06T19:37:38.013Z,101543.31
2023-04-06T19:40:27.450Z,101555.00
2023-04-06T19:43:18.161Z,101556.72
2023-04-06T19:46:09.261Z,101567.13
2023-04-06T19:48:58.701Z,101557.38
2023-04-06T19:51:48.302Z,101579.22
2023-04-06T19:54:39.715Z,101579.81
2023-04-06T19:57:31.037Z,101579.31
2023-04-06T20:00:21.684Z,101585.44
2023-04-06T20:03:11.574Z,101581.66
2023-04-06T20:06:02.571Z,101569.28
2023-04-06T20:08:51.880Z,101585.44
2023-04-06T20:11:42.536Z,101591.03
2023-04-06T20:14:31.907Z,101598.56
2023-04-06T20:17:22.061Z,101601.56
2023-04-06T20:20:13.041Z,101598.81
2023-04-06T20:23:02.275Z,101592.81
2023-04-06T20:25:51.636Z,101603.09
2023-04-06T20:28:42.367Z,101602.66
2023-04-06T20:31:31.705Z,101600.81
2023-04-06T20:34:21.018Z,101603.34
2023-04-06T20:37:10.358Z,101599.28
2023-04-06T20:39:59.600Z,101600.00
2023-04-06T20:42:49.105Z,101605.97
2023-04-06T20:45:39.711Z,101609.03
2023-04-06T20:48:31.083Z,101611.53
2023-04-06T20:51:23.411Z,101600.69
2023-04-06T20:54:12.826Z,101620.16
2023-04-06T20:57:02.930Z,101620.25
2023-04-06T20:59:52.250Z,101621.13
2023-04-06T21:02:43.303Z,101617.16
2023-04-06T21:05:32.689Z,101629.22
2023-04-06T21:08:21.933Z,101631.84
2023-04-06T21:11:11.719Z,101630.78
2023-04-06T21:14:01.063Z,101631.41
2023-04-06T21:16:50.276Z,101636.25
2023-04-06T21:19:40.888Z,101627.09
2023-04-06T21:22:30.081Z,101632.00
2023-04-06T21:25:19.543Z,101630.66
2023-04-06T21:28:08.724Z,101633.63
2023-04-06T21:30:58.007Z,101624.34
2023-04-06T21:33:47.747Z,101621.72
2023-04-06T21:36:38.722Z,101631.09
2023-04-06T21:39:28.153Z,101623.31
2023-04-06T21:42:17.283Z,101623.75
2023-04-06T21:45:07.884Z,101621.69
2023-04-06T21:47:57.307Z,101617.44
2023-04-06T21:50:46.669Z,101618.50
2023-04-06T21:53:43.143Z,101617.97
2023-04-06T21:56:32.620Z,101621.84
2023-04-06T21:59:25.040Z,101624.63
2023-04-06T22:02:17.325Z,101625.28
2023-04-06T22:05:07.501Z,101628.31
2023-04-06T22:07:57.334Z,101622.38
2023-04-06T22:10:48.194Z,101627.63
2023-04-06T22:13:39.010Z,101617.88
2023-04-06T22:16:28.628Z,101609.81
2023-04-06T22:19:34.214Z,101623.91
2023-04-06T22:22:23.775Z,101619.00
2023-04-06T22:25:13.036Z,101620.91
2023-04-06T22:28:06.877Z,101619.88
2023-04-06T22:30:56.289Z,101616.72
2023-04-06T22:33:45.630Z,101625.22
2023-04-06T22:36:38.194Z,101630.66
2023-04-06T22:39:30.764Z,101633.94
2023-04-06T22:42:21.913Z,101643.78
2023-04-06T22:45:13.161Z,101644.34
2023-04-06T22:48:09.121Z,101643.25
2023-04-06T22:51:01.274Z,101640.88
2023-04-06T22:53:50.618Z,101655.91
2023-04-06T22:56:39.910Z,101653.47
2023-04-06T22:59:32.069Z,101664.16
2023-04-06T23:02:22.924Z,101668.03
2023-04-06T23:05:12.829Z,101676.00
2023-04-06T23:08:02.124Z,101665.41
2023-04-06T23:10:52.191Z,101669.97
2023-04-06T23:13:41.464Z,101672.19
2023-04-06T23:16:31.369Z,101678.75
2023-04-06T23:19:22.135Z,101679.56
2023-04-06T23:22:11.356Z,101674.44
2023-04-06T23:25:00.631Z,101677.75
2023-04-06T23:27:49.844Z,101682.09
2023-04-06T23:30:39.227Z,101683.22
2023-04-06T23:33:29.183Z,101693.09
2023-04-06T23:36:19.895Z,101682.72
2023-04-06T23:39:09.219Z,101686.03
2023-04-06T23:41:59.020Z,101683.03
2023-04-06T23:44:48.209Z,101675.69
2023-04-06T23:47:37.621Z,101684.19
2023-04-06T23:50:27.024Z,101682.28
2023-04-06T23:53:17.545Z,101663.44
2023-04-06T23:56:07.436Z,101678.44
2023-04-06T23:58:56.614Z,101682.81
